Terminal Aerodrome Forecast
Issued by NWS Cleveland, OH

Home | Current Version | Previous Version | Text Only | Print | Product List | Glossary On
Versions: 1 2 3 4 5 6 7 8 9 10 11 12 13 14 15 16 17 18 19 20 21 22 23 24 25 26 27 28 29 30 31 32 33 34 35 36 37
000
FTUS41 KCLE 221500 AAA
TAFCLE
TAF AMD
KCLE 221506Z 2215/2318 VRB04KT P6SM SCT015 BKN250
      TEMPO 2215/2219 BKN015
     FM221900 01008KT P6SM SCT035 BKN100
     FM230500 VRB03KT 4SM BR FEW008 BKN025=

USA.gov is the U.S. government's official web portal to all federal, state and local government web resources and services.